Time;durP1;ratioP1;P1;durP2;ratioP2;P2;SDS_P1;SDS_P2;PMS_P1;PMS_P2;Temp;Humidity;BMP_temperature;BMP_pressure;BME280_temperature;BME280_humidity;BME280_pressure;Samples;Min_cycle;Max_cycle;Signal;HPM_P1;HPM_P2
2023/01/24 00:00:44;;;;;;;;;;;;;;;6.47;100.00;99230.13;4440815;32;20346;-77
2023/01/24 00:03:12;;;;;;;;;;;;;;;7.02;97.89;99233.09;4441178;32;19968;-77
2023/01/24 00:05:43;;;;;;;;;;;;;;;7.37;95.70;99234.44;4441071;32;19976;-77
2023/01/24 00:08:10;;;;;;;;;;;;;;;7.47;94.39;99236.03;4440939;32;19972;-77
2023/01/24 00:10:37;;;;;;;;;;;;;;;7.35;94.30;99239.59;4441149;32;19969;-77
2023/01/24 00:13:04;;;;;;;;;;;;;;;7.53;93.72;99241.06;4441065;32;19987;-77
2023/01/24 00:15:31;;;;;;;;;;;;;;;7.61;93.22;99236.72;4440782;32;19972;-77
2023/01/24 00:17:58;;;;;;;;;;;;;;;7.67;93.06;99234.09;4441164;32;20275;-77
2023/01/24 00:20:25;;;;;;;;;;;;;;;7.76;93.04;99228.84;4426921;32;19972;-77
2023/01/24 00:22:51;;;;;;;;;;;;;;;6.76;97.95;99228.16;4440990;32;19961;-77
2023/01/24 00:25:18;;;;;;;;;;;;;;;6.26;100.00;99219.16;4427270;32;20015;-77
2023/01/24 00:27:45;;;;;;;;;;;;;;;6.60;99.51;99222.34;4427096;32;19985;-77
2023/01/24 00:30:12;;;;;;;;;;;;;;;5.80;100.00;99221.09;4440966;32;20008;-77
2023/01/24 00:32:39;;;;;;;;;;;;;;;6.53;100.00;99223.22;4441067;32;19965;-77
2023/01/24 00:35:05;;;;;;;;;;;;;;;6.64;97.95;99235.97;4440695;32;19973;-77
2023/01/24 00:37:32;;;;;;;;;;;;;;;6.70;98.06;99235.06;4441013;32;19990;-77
2023/01/24 00:39:59;;;;;;;;;;;;;;;6.71;99.35;99234.22;4440868;32;19987;-77
2023/01/24 00:42:25;;;;;;;;;;;;;;;5.54;100.00;99234.03;4440787;32;19964;-77
2023/01/24 00:44:52;;;;;;;;;;;;;;;6.22;100.00;99239.69;4440752;32;20034;-77
2023/01/24 00:47:19;;;;;;;;;;;;;;;6.09;100.00;99241.47;4440913;32;19977;-77
2023/01/24 00:49:46;;;;;;;;;;;;;;;7.10;98.13;99251.81;4440444;32;19991;-77
2023/01/24 00:52:12;;;;;;;;;;;;;;;7.47;93.16;99254.84;4440904;32;20019;-77
2023/01/24 00:54:39;;;;;;;;;;;;;;;7.74;89.99;99257.97;4440741;32;19977;-77
2023/01/24 00:57:06;;;;;;;;;;;;;;;7.44;91.56;99257.47;4440419;32;19977;-77
2023/01/24 00:59:33;;;;;;;;;;;;;;;6.90;94.22;99258.81;4440839;32;19969;-77
2023/01/24 01:01:59;;;;;;;;;;;;;;;6.88;95.92;99263.13;4440564;32;20020;-77
2023/01/24 01:04:26;;;;;;;;;;;;;;;6.45;99.41;99254.91;4440016;32;19977;-77
2023/01/24 01:06:53;;;;;;;;;;;;;;;6.76;96.56;99260.66;4440712;32;19981;-77
2023/01/24 01:09:19;;;;;;;;;;;;;;;6.29;99.54;99265.28;4439893;32;19987;-78
2023/01/24 01:11:46;;;;;;;;;;;;;;;6.85;96.65;99266.56;4440388;32;19969;-77
2023/01/24 01:14:13;;;;;;;;;;;;;;;7.66;90.99;99270.06;4440498;32;19981;-77
2023/01/24 01:16:39;;;;;;;;;;;;;;;7.88;88.79;99268.09;4440230;32;20042;-77
2023/01/24 01:19:06;;;;;;;;;;;;;;;7.67;90.07;99264.91;4440517;32;20015;-77
2023/01/24 01:21:33;;;;;;;;;;;;;;;7.53;90.69;99280.44;4440314;32;20034;-77
2023/01/24 01:24:00;;;;;;;;;;;;;;;7.74;87.79;99271.66;4439865;32;20046;-77
2023/01/24 01:26:26;;;;;;;;;;;;;;;7.41;90.29;99264.34;4440422;32;20003;-77
2023/01/24 01:28:53;;;;;;;;;;;;;;;7.47;90.75;99266.84;4440355;32;19973;-77
2023/01/24 01:31:20;;;;;;;;;;;;;;;7.75;88.19;99269.94;4426056;32;19973;-77
2023/01/24 01:33:47;;;;;;;;;;;;;;;7.50;89.67;99266.81;4440165;32;19977;-77
2023/01/24 01:36:13;;;;;;;;;;;;;;;7.52;89.62;99267.63;4440215;32;19989;-77
2023/01/24 01:38:40;;;;;;;;;;;;;;;7.59;88.42;99269.28;4439782;32;19972;-77
2023/01/24 01:41:07;;;;;;;;;;;;;;;7.14;92.42;99273.19;4440002;32;19961;-77
2023/01/24 01:43:33;;;;;;;;;;;;;;;6.22;100.00;99268.72;4439908;32;19976;-77
2023/01/24 01:46:05;;;;;;;;;;;;;;;6.11;100.00;99274.78;4439839;32;19980;-77
2023/01/24 01:48:58;;;;;;;;;;;;;;;5.93;100.00;99268.03;4426348;32;19983;-77
2023/01/24 01:51:45;;;;;;;;;;;;;;;6.26;100.00;99272.97;4436888;32;19969;-79
2023/01/24 01:54:22;;;;;;;;;;;;;;;6.60;100.00;99267.66;4439907;32;19981;-77
2023/01/24 01:57:08;;;;;;;;;;;;;;;6.44;100.00;99274.56;4426289;32;20001;-77
2023/01/24 01:59:36;;;;;;;;;;;;;;;6.64;100.00;99277.00;4439616;32;20648;-77
2023/01/24 02:02:02;;;;;;;;;;;;;;;6.93;99.99;99276.78;4425941;32;19976;-77
2023/01/24 02:04:33;;;;;;;;;;;;;;;7.25;96.30;99281.62;4439408;32;19969;-77
2023/01/24 02:07:09;;;;;;;;;;;;;;;7.66;91.22;99281.19;4425700;32;19988;-77
2023/01/24 02:09:42;;;;;;;;;;;;;;;7.60;92.00;99277.81;4439836;32;19988;-77
2023/01/24 02:12:10;;;;;;;;;;;;;;;7.58;91.95;99275.28;4439724;32;20299;-77
2023/01/24 02:17:22;;;;;;;;;;;;;;;6.61;100.00;99282.16;4428026;32;19976;-77
2023/01/24 02:20:09;;;;;;;;;;;;;;;7.08;98.23;99278.34;4439201;32;20018;-77
2023/01/24 02:22:42;;;;;;;;;;;;;;;7.55;92.97;99288.16;4441912;32;19969;-77
2023/01/24 02:25:15;;;;;;;;;;;;;;;7.49;91.87;99289.06;4441848;32;19973;-77
2023/01/24 02:27:41;;;;;;;;;;;;;;;7.23;92.95;99291.03;4441562;32;20256;-77
2023/01/24 02:30:08;;;;;;;;;;;;;;;7.24;92.59;99291.03;4428075;32;20018;-77
2023/01/24 02:32:35;;;;;;;;;;;;;;;6.98;95.36;99290.41;4441898;32;19965;-77
2023/01/24 02:35:02;;;;;;;;;;;;;;;7.27;94.09;99292.72;4427622;32;19991;-77
2023/01/24 02:37:29;;;;;;;;;;;;;;;7.08;94.25;99297.16;4428047;32;19999;-77
2023/01/24 02:39:58;;;;;;;;;;;;;;;7.28;93.14;99286.72;4427839;32;19968;-77
2023/01/24 02:42:31;;;;;;;;;;;;;;;6.96;95.04;99292.16;4427702;32;19986;-77
2023/01/24 02:45:00;;;;;;;;;;;;;;;5.71;100.00;99296.25;4427814;32;19981;-77
2023/01/24 02:47:32;;;;;;;;;;;;;;;5.65;100.00;99295.44;4441837;32;20038;-77
2023/01/24 02:49:59;;;;;;;;;;;;;;;5.86;100.00;99289.38;4428337;32;20011;-77
2023/01/24 02:55:11;;;;;;;;;;;;;;;6.01;100.00;99289.34;4441411;32;19977;-77
2023/01/24 03:00:24;;;;;;;;;;;;;;;6.95;97.06;99288.72;4441610;32;19969;-77
2023/01/24 03:02:50;;;;;;;;;;;;;;;7.38;92.78;99293.47;4441377;32;19984;-77
2023/01/24 03:05:17;;;;;;;;;;;;;;;7.14;92.55;99291.16;4427608;32;20011;-77
2023/01/24 03:07:44;;;;;;;;;;;;;;;7.56;89.18;99291.59;4441660;32;20457;-77
2023/01/24 03:10:12;;;;;;;;;;;;;;;7.46;89.13;99293.41;4441126;32;19973;-77
2023/01/24 03:34:50;;;;;;;;;;;;;;;6.38;100.00;99318.22;4441346;32;20022;-77
2023/01/24 03:39:53;;;;;;;;;;;;;;;5.68;100.00;99316.75;4441113;32;19995;-77
2023/01/24 03:40:06;;;;;;;;;;;;;;;6.09;100.00;99311.50;4430001;32;20035;-77
2023/01/24 03:42:33;;;;;;;;;;;;;;;6.42;100.00;99319.88;4441474;32;19980;-77
2023/01/24 03:45:00;;;;;;;;;;;;;;;6.00;100.00;99320.94;4440914;32;19965;-77
2023/01/24 03:47:27;;;;;;;;;;;;;;;6.67;100.00;99310.31;4441407;32;20030;-77
2023/01/24 03:52:38;;;;;;;;;;;;;;;7.12;95.79;99311.66;4441096;32;19969;-77
2023/01/24 03:55:07;;;;;;;;;;;;;;;7.13;95.18;99309.97;4441219;32;19965;-77
2023/01/24 03:57:34;;;;;;;;;;;;;;;6.62;96.12;99312.06;4441365;32;20468;-77
2023/01/24 04:00:01;;;;;;;;;;;;;;;6.33;99.36;99307.97;4440885;32;20350;-77
2023/01/24 04:02:27;;;;;;;;;;;;;;;5.72;100.00;99312.47;4441406;32;19973;-77
2023/01/24 04:05:13;;;;;;;;;;;;;;;5.55;100.00;99309.13;4440580;32;20342;-77
2023/01/24 04:07:39;;;;;;;;;;;;;;;5.52;100.00;99308.25;4441384;32;19976;-77
2023/01/24 04:10:07;;;;;;;;;;;;;;;5.46;100.00;99313.41;4427408;32;19981;-77
2023/01/24 04:12:34;;;;;;;;;;;;;;;5.52;100.00;99310.81;4440881;32;19988;-77
2023/01/24 04:15:00;;;;;;;;;;;;;;;5.70;100.00;99309.91;4441157;32;19965;-77
2023/01/24 04:17:27;;;;;;;;;;;;;;;5.64;100.00;99319.34;4441238;32;19977;-77
2023/01/24 04:19:54;;;;;;;;;;;;;;;5.71;100.00;99318.44;4440777;32;20304;-77
2023/01/24 04:22:21;;;;;;;;;;;;;;;5.82;100.00;99315.00;4441172;32;19981;-77
2023/01/24 04:24:47;;;;;;;;;;;;;;;6.34;100.00;99314.78;4440913;32;19956;-77
2023/01/24 04:27:14;;;;;;;;;;;;;;;6.05;100.00;99316.63;4440737;32;20070;-77
2023/01/24 04:29:41;;;;;;;;;;;;;;;5.90;100.00;99322.69;4441081;32;19977;-76
2023/01/24 04:32:08;;;;;;;;;;;;;;;5.97;100.00;99319.25;4441155;32;19987;-77
2023/01/24 04:34:35;;;;;;;;;;;;;;;6.85;97.58;99312.75;4440613;32;19980;-77
2023/01/24 04:37:01;;;;;;;;;;;;;;;6.86;97.57;99318.75;4441004;32;19976;-77
2023/01/24 04:39:28;;;;;;;;;;;;;;;7.26;92.14;99319.25;4441011;32;20304;-77
2023/01/24 04:41:55;;;;;;;;;;;;;;;7.23;91.63;99324.41;4440404;32;20037;-77
2023/01/24 04:44:21;;;;;;;;;;;;;;;6.92;93.08;99328.97;4440121;32;19968;-77
2023/01/24 04:46:48;;;;;;;;;;;;;;;6.71;94.93;99329.13;4440909;32;19991;-80
2023/01/24 04:49:15;;;;;;;;;;;;;;;6.86;94.74;99323.88;4440903;32;19976;-77
2023/01/24 04:51:42;;;;;;;;;;;;;;;6.58;94.89;99334.31;4440703;32;19981;-77
2023/01/24 04:54:09;;;;;;;;;;;;;;;7.01;92.37;99333.16;4440439;32;20075;-78
2023/01/24 04:56:36;;;;;;;;;;;;;;;7.04;92.68;99334.00;4440775;32;20331;-77
2023/01/24 04:59:03;;;;;;;;;;;;;;;6.87;92.89;99338.41;4440849;32;19976;-77
2023/01/24 05:01:29;;;;;;;;;;;;;;;6.85;92.39;99340.13;4440301;32;19972;-77
2023/01/24 05:03:58;;;;;;;;;;;;;;;6.91;92.44;99334.94;4440321;32;19980;-77
2023/01/24 05:06:26;;;;;;;;;;;;;;;7.04;90.93;99341.69;4427142;32;20048;-77
2023/01/24 05:08:53;;;;;;;;;;;;;;;6.86;92.26;99345.25;4440287;32;19977;-77
2023/01/24 05:11:20;;;;;;;;;;;;;;;7.17;91.18;99345.00;4440467;32;20043;-77
2023/01/24 05:13:46;;;;;;;;;;;;;;;6.65;93.03;99346.25;4440494;32;19973;-77
2023/01/24 05:16:13;;;;;;;;;;;;;;;6.44;98.55;99343.78;4440164;32;19977;-77
2023/01/24 05:18:40;;;;;;;;;;;;;;;6.45;98.83;99348.06;4440614;32;19980;-77
2023/01/24 05:21:07;;;;;;;;;;;;;;;6.45;98.79;99342.94;4440258;32;19973;-77
2023/01/24 05:23:34;;;;;;;;;;;;;;;5.88;100.00;99346.59;4440103;32;19969;-77
2023/01/24 05:26:01;;;;;;;;;;;;;;;5.84;100.00;99357.69;4440348;32;19980;-77
2023/01/24 05:28:28;;;;;;;;;;;;;;;5.79;100.00;99357.69;4426527;32;20331;-77
2023/01/24 05:30:59;;;;;;;;;;;;;;;5.79;100.00;99353.44;4439935;32;19980;-77
2023/01/24 05:33:25;;;;;;;;;;;;;;;5.20;100.00;99353.50;4440178;32;19984;-77
2023/01/24 05:35:59;;;;;;;;;;;;;;;5.22;100.00;99356.94;4426325;32;20034;-77
2023/01/24 05:38:25;;;;;;;;;;;;;;;5.41;100.00;99352.66;4440100;32;20011;-77
2023/01/24 05:40:52;;;;;;;;;;;;;;;5.28;100.00;99358.63;4439971;32;19972;-77
2023/01/24 05:43:19;;;;;;;;;;;;;;;5.22;100.00;99357.81;4439765;32;19964;-77
2023/01/24 05:45:45;;;;;;;;;;;;;;;4.92;100.00;99363.75;4440027;32;19969;-77
2023/01/24 05:48:12;;;;;;;;;;;;;;;4.90;100.00;99360.34;4440148;32;19996;-77
2023/01/24 05:50:39;;;;;;;;;;;;;;;4.99;100.00;99363.75;4439611;32;20326;-77
2023/01/24 05:53:06;;;;;;;;;;;;;;;5.01;100.00;99364.62;4439792;32;19969;-77
2023/01/24 05:55:32;;;;;;;;;;;;;;;4.71;100.00;99368.84;4440546;32;20030;-77
2023/01/24 05:58:00;;;;;;;;;;;;;;;4.62;100.00;99366.25;4441638;32;20089;-77
2023/01/24 06:00:26;;;;;;;;;;;;;;;5.11;100.00;99377.41;4441851;32;20323;-77
2023/01/24 06:02:54;;;;;;;;;;;;;;;5.89;100.00;99376.47;4441904;32;19968;-77
2023/01/24 06:05:21;;;;;;;;;;;;;;;6.16;100.00;99378.09;4441480;32;19977;-77
2023/01/24 06:07:48;;;;;;;;;;;;;;;6.41;100.00;99376.31;4442144;32;20008;-77
2023/01/24 06:10:15;;;;;;;;;;;;;;;6.85;94.06;99378.59;4441982;32;19965;-77
2023/01/24 06:12:42;;;;;;;;;;;;;;;6.68;93.69;99379.56;4427717;32;19965;-77
2023/01/24 06:15:08;;;;;;;;;;;;;;;6.53;94.38;99378.81;4442084;32;19992;-77
2023/01/24 06:17:35;;;;;;;;;;;;;;;6.34;95.32;99381.44;4442029;32;19981;-77
2023/01/24 06:20:02;;;;;;;;;;;;;;;6.11;96.81;99383.25;4441511;32;19968;-77
2023/01/24 06:22:30;;;;;;;;;;;;;;;6.02;97.94;99384.13;4441861;32;19983;-77
2023/01/24 06:24:57;;;;;;;;;;;;;;;5.85;99.46;99391.00;4441783;32;20030;-77
2023/01/24 06:27:24;;;;;;;;;;;;;;;5.09;100.00;99386.78;4441640;32;20426;-77
2023/01/24 06:29:51;;;;;;;;;;;;;;;5.39;100.00;99390.19;4441783;32;19973;-77
2023/01/24 06:32:18;;;;;;;;;;;;;;;5.56;100.00;99401.28;4441512;32;19969;-78
2023/01/24 06:34:53;;;;;;;;;;;;;;;6.24;98.78;99404.56;4441852;32;19969;-77
2023/01/24 06:37:20;;;;;;;;;;;;;;;6.28;97.95;99406.28;4441891;32;19981;-77
2023/01/24 06:39:51;;;;;;;;;;;;;;;6.03;98.42;99403.78;4441428;32;19988;-77
2023/01/24 06:42:18;;;;;;;;;;;;;;;6.56;95.02;99406.97;4441710;32;20034;-77
2023/01/24 06:44:45;;;;;;;;;;;;;;;6.18;96.80;99407.16;4441755;32;20020;-77
2023/01/24 06:47:12;;;;;;;;;;;;;;;6.15;97.60;99412.28;4441412;32;20034;-76
2023/01/24 06:49:39;;;;;;;;;;;;;;;6.15;97.75;99413.13;4427936;32;20312;-76
2023/01/24 06:52:05;;;;;;;;;;;;;;;6.04;99.00;99423.41;4441335;32;20441;-77
2023/01/24 06:54:32;;;;;;;;;;;;;;;6.00;99.62;99421.72;4440957;32;19983;-77
2023/01/24 06:56:59;;;;;;;;;;;;;;;6.72;97.00;99418.88;4441531;32;20022;-76
2023/01/24 06:59:26;;;;;;;;;;;;;;;6.53;97.22;99424.94;4441513;32;19973;-75
2023/01/24 07:01:53;;;;;;;;;;;;;;;6.55;97.47;99426.66;4440946;32;20372;-76
2023/01/24 07:04:19;;;;;;;;;;;;;;;6.54;97.79;99426.66;4441241;32;19965;-76
2023/01/24 07:06:47;;;;;;;;;;;;;;;6.39;97.83;99435.28;4441122;32;19972;-76
2023/01/24 07:09:13;;;;;;;;;;;;;;;6.43;98.29;99436.97;4440989;32;19977;-76
2023/01/24 07:11:40;;;;;;;;;;;;;;;7.11;94.73;99440.84;4440741;32;20011;-76
2023/01/24 07:14:07;;;;;;;;;;;;;;;7.02;95.01;99452.91;4440967;32;19977;-76
2023/01/24 07:16:33;;;;;;;;;;;;;;;6.27;100.00;99451.56;4440782;32;19973;-76
2023/01/24 07:19:03;;;;;;;;;;;;;;;6.13;100.00;99455.84;4441085;32;20327;-76
2023/01/24 07:21:30;;;;;;;;;;;;;;;6.12;100.00;99456.72;4440921;32;19961;-76
2023/01/24 07:23:56;;;;;;;;;;;;;;;5.51;100.00;99454.19;4441411;32;19977;-76
2023/01/24 07:26:23;;;;;;;;;;;;;;;5.85;100.00;99462.72;4427582;32;20025;-76
2023/01/24 07:28:50;;;;;;;;;;;;;;;5.45;100.00;99456.75;4440970;32;19968;-76
2023/01/24 07:31:17;;;;;;;;;;;;;;;5.27;100.00;99465.25;4441256;32;19984;-75
2023/01/24 07:33:44;;;;;;;;;;;;;;;5.11;100.00;99466.09;4427392;32;20027;-78
2023/01/24 07:36:11;;;;;;;;;;;;;;;5.91;100.00;99469.56;4441005;32;19981;-77
2023/01/24 07:38:38;;;;;;;;;;;;;;;6.57;100.00;99472.78;4441043;32;19982;-81
2023/01/24 07:41:08;;;;;;;;;;;;;;;6.62;95.54;99479.62;4440963;32;19992;-77
2023/01/24 07:43:35;;;;;;;;;;;;;;;6.39;96.50;99468.59;4440855;32;20106;-78
2023/01/24 07:46:03;;;;;;;;;;;;;;;6.06;99.00;99477.22;4441021;32;19973;-78
2023/01/24 07:48:30;;;;;;;;;;;;;;;6.46;98.21;99472.84;4427378;32;20303;-78
2023/01/24 07:50:59;;;;;;;;;;;;;;;6.65;96.03;99469.34;4440744;32;19969;-78
2023/01/24 07:53:26;;;;;;;;;;;;;;;6.67;96.36;99477.88;4441153;32;19977;-79
2023/01/24 07:55:53;;;;;;;;;;;;;;;6.29;98.75;99477.19;4441210;32;20294;-78
2023/01/24 07:58:28;;;;;;;;;;;;;;;6.31;99.14;99478.88;4441054;32;19991;-78
2023/01/24 08:00:54;;;;;;;;;;;;;;;6.63;98.54;99490.72;4441686;32;20022;-86
2023/01/24 08:03:21;;;;;;;;;;;;;;;7.19;93.46;99482.75;4440980;32;19988;-85
2023/01/24 08:05:48;;;;;;;;;;;;;;;6.66;97.24;99491.56;4443115;32;20030;-85
2023/01/24 08:08:15;;;;;;;;;;;;;;;6.36;99.62;99494.22;4442564;32;20345;-86
2023/01/24 08:11:19;;;;;;;49.80;18.30;;;;;;;6.54;99.47;99501.88;4528061;31;190448;-83
2023/01/24 08:13:46;;;;;;;59.50;19.40;;;;;;;6.54;99.47;99501.88;4520334;31;20108;-84
2023/01/24 08:16:13;;;;;;;114.00;23.23;;;;;;;6.03;100.00;99498.56;4518408;31;20103;-83
2023/01/24 08:18:40;;;;;;;135.68;23.40;;;;;;;6.02;100.00;99498.56;4521144;31;20473;-85
2023/01/24 08:21:08;;;;;;;113.03;23.10;;;;;;;6.02;100.00;99496.88;4517567;31;20107;-85
2023/01/24 08:23:34;;;;;;;113.10;24.73;;;;;;;5.99;100.00;99499.44;4515236;31;20442;-85
2023/01/24 08:26:05;;;;;;;126.03;24.70;;;;;;;5.81;100.00;99501.97;4514778;31;20088;-84
2023/01/24 08:28:33;;;;;;;134.73;25.02;;;;;;;5.66;100.00;99495.16;4515652;31;20070;-88
2023/01/24 08:31:03;;;;;;;74.85;21.12;;;;;;;5.85;100.00;99496.03;4515562;31;20154;-87
2023/01/24 08:33:30;;;;;;;111.07;22.73;;;;;;;5.19;100.00;99501.06;4514728;31;20156;-88
2023/01/24 08:35:59;;;;;;;75.22;20.25;;;;;;;4.55;100.00;99494.91;4514723;31;20084;-86
2023/01/24 08:38:26;;;;;;;111.65;23.08;;;;;;;4.50;100.00;99502.56;4515287;31;20088;-87
2023/01/24 08:40:53;;;;;;;55.08;19.58;;;;;;;4.30;100.00;99493.94;4515870;31;20119;-86
2023/01/24 08:43:20;;;;;;;62.05;21.23;;;;;;;4.25;100.00;99496.47;4518280;31;20084;-85
2023/01/24 08:45:47;;;;;;;70.80;20.70;;;;;;;4.21;100.00;99484.50;4515933;31;20148;-86
2023/01/24 08:48:14;;;;;;;50.08;19.73;;;;;;;4.38;100.00;99504.19;4515552;31;20072;-85
2023/01/24 08:50:42;;;;;;;;;;;;;;;4.78;100.00;99495.84;4519048;31;20096;-85
2023/01/24 08:53:10;;;;;;;51.75;18.85;;;;;;;4.58;100.00;99497.47;4517205;31;19986;-85
2023/01/24 08:55:37;;;;;;;49.20;18.55;;;;;;;4.97;100.00;99501.00;4517136;31;20501;-84
2023/01/24 08:58:04;;;;;;;57.40;22.08;;;;;;;4.52;100.00;99508.53;4518032;31;20132;-84
2023/01/24 09:00:32;;;;;;;49.03;19.70;;;;;;;5.20;100.00;99517.28;4516862;31;20118;-84
2023/01/24 09:03:00;;;;;;;43.78;18.48;;;;;;;5.13;100.00;99516.44;4517309;31;20179;-84
2023/01/24 09:05:28;;;;;;;49.42;19.67;;;;;;;4.92;100.00;99513.81;4516995;31;20088;-85
2023/01/24 09:08:00;;;;;;;53.47;20.83;;;;;;;4.99;100.00;99519.78;4516552;31;20102;-84
2023/01/24 09:10:28;;;;;;;46.55;18.87;;;;;;;4.94;100.00;99519.78;4515818;31;20084;-84
2023/01/24 09:12:55;;;;;;;51.35;18.37;;;;;;;5.26;100.00;99522.41;4523543;31;20064;-84
2023/01/24 09:15:22;;;;;;;48.05;19.37;;;;;;;5.42;100.00;99521.59;4523825;31;20060;-84
2023/01/24 09:17:49;;;;;;;49.78;18.77;;;;;;;5.41;100.00;99522.44;4520573;31;20098;-84
2023/01/24 09:20:19;;;;;;;;;;;;;;;5.45;100.00;99518.19;4517995;31;20126;-84
2023/01/24 09:22:46;;;;;;;46.47;18.05;;;;;;;5.25;100.00;99523.28;4508681;31;19951;-85
2023/01/24 09:25:13;;;;;;;45.65;18.27;;;;;;;5.37;100.00;99520.72;4507892;31;20079;-85
2023/01/24 09:27:41;;;;;;;39.33;17.58;;;;;;;5.67;100.00;99526.75;4508339;31;20080;-85
2023/01/24 09:30:09;;;;;;;37.03;16.00;;;;;;;5.50;100.00;99529.28;4505350;31;20262;-85
2023/01/24 09:32:36;;;;;;;33.65;13.25;;;;;;;5.64;100.00;99513.94;4504180;31;20100;-84
2023/01/24 09:35:04;;;;;;;29.02;13.43;;;;;;;5.42;100.00;99528.41;4505092;31;20141;-84
2023/01/24 09:37:31;;;;;;;32.78;13.62;;;;;;;5.43;100.00;99525.88;4507905;31;20069;-84
2023/01/24 09:39:59;;;;;;;30.92;14.95;;;;;;;5.36;100.00;99531.81;4507880;31;20132;-84
2023/01/24 09:42:39;;;;;;;30.17;13.70;;;;;;;5.59;100.00;99531.00;4507249;31;20088;-85
2023/01/24 09:45:23;;;;;;;34.78;15.30;;;;;;;5.62;100.00;99531.84;4506067;31;20427;-84
2023/01/24 09:47:54;;;;;;;29.70;13.18;;;;;;;5.63;100.00;99533.53;4507273;31;20139;-84
2023/01/24 09:50:54;;;;;;;26.15;12.37;;;;;;;5.52;100.00;99530.13;4511119;31;20118;-84
2023/01/24 09:53:29;;;;;;;27.67;11.55;;;;;;;5.98;100.00;99531.03;4509922;31;20112;-84
2023/01/24 09:55:58;;;;;;;25.48;11.10;;;;;;;5.59;100.00;99523.31;4512039;31;20104;-84
2023/01/24 09:58:39;;;;;;;24.52;10.82;;;;;;;5.35;100.00;99530.13;4507626;31;20081;-84
2023/01/24 10:01:13;;;;;;;21.95;9.30;;;;;;;5.46;100.00;99527.56;4506440;31;20105;-84
2023/01/24 10:03:40;;;;;;;25.60;9.75;;;;;;;5.75;99.64;99522.47;4505319;31;20100;-84
2023/01/24 10:06:13;;;;;;;23.65;10.07;;;;;;;5.62;100.00;99524.16;4505190;31;20203;-84
2023/01/24 10:08:50;;;;;;;20.58;10.20;;;;;;;5.72;97.98;99514.78;4505496;31;20145;-84
2023/01/24 10:11:32;;;;;;;22.48;9.50;;;;;;;5.86;96.66;99518.22;4504610;31;20107;-83
2023/01/24 10:14:10;;;;;;;22.00;9.68;;;;;;;6.04;95.64;99504.53;4502608;31;20454;-83
2023/01/24 10:17:06;;;;;;;20.65;7.35;;;;;;;6.02;95.05;99501.12;4503307;31;20710;-84
2023/01/24 10:19:53;;;;;;;20.05;7.47;;;;;;;5.99;90.95;99504.56;4504029;31;20069;-84
2023/01/24 10:23:00;;;;;;;13.65;6.07;;;;;;;5.99;92.02;99501.16;4506298;31;20100;-83
2023/01/24 10:25:33;;;;;;;16.77;7.55;;;;;;;6.35;85.96;99498.50;4464687;31;20120;-83
2023/01/24 10:28:01;;;;;;;16.73;6.68;;;;;;;7.00;84.94;99501.66;4504062;31;20430;-83
2023/01/24 10:30:45;;;;;;;13.85;5.12;;;;;;;7.12;83.60;99511.00;4503927;31;20080;-84
2023/01/24 10:33:16;;;;;;;17.65;6.55;;;;;;;6.94;81.68;99501.72;4503434;31;20104;-84
2023/01/24 10:35:52;;;;;;;14.18;5.78;;;;;;;7.45;77.61;99502.28;4506515;31;20087;-85
2023/01/24 10:38:19;;;;;;;18.30;6.70;;;;;;;7.57;76.29;99498.75;4505803;31;20084;-84
2023/01/24 10:40:51;;;;;;;16.55;6.00;;;;;;;7.83;75.75;99502.81;4505997;31;20450;-84
2023/01/24 10:43:19;;;;;;;12.18;4.87;;;;;;;8.27;74.27;99491.25;4506180;31;20064;-84
2023/01/24 10:46:17;;;;;;;14.85;5.53;;;;;;;8.09;74.52;99494.03;4506482;31;20434;-85
2023/01/24 10:48:52;;;;;;;11.57;4.25;;;;;;;8.43;72.48;99488.56;4507212;31;20052;-84
2023/01/24 10:51:22;;;;;;;12.45;5.07;;;;;;;8.19;70.49;99484.47;4507479;31;20493;-85
2023/01/24 10:53:49;;;;;;;13.90;5.28;;;;;;;8.22;72.80;99479.31;4505431;31;20111;-86
2023/01/24 10:56:21;;;;;;;14.00;5.25;;;;;;;8.37;72.88;99476.59;4506414;31;20472;-86
2023/01/24 10:58:55;;;;;;;13.90;5.55;;;;;;;8.08;73.63;99482.00;4506878;31;20056;-85
2023/01/24 11:01:25;;;;;;;13.27;5.65;;;;;;;8.47;72.83;99483.34;4504364;31;20144;-84
2023/01/24 11:03:54;;;;;;;12.73;5.37;;;;;;;9.05;71.08;99480.06;4505190;31;20092;-85
2023/01/24 11:06:37;;;;;;;14.15;5.78;;;;;;;8.90;70.64;99475.97;4504935;31;20102;-85
2023/01/24 11:09:11;;;;;;;13.02;6.05;;;;;;;8.69;70.31;99476.22;4503495;31;20139;-85
2023/01/24 11:11:49;;;;;;;12.57;5.25;;;;;;;9.04;70.59;99477.47;4500954;31;20144;-84
2023/01/24 11:14:21;;;;;;;13.13;6.00;;;;;;;9.03;68.80;99474.06;4502847;31;20104;-85
2023/01/24 11:16:52;;;;;;;13.88;5.95;;;;;;;8.88;67.70;99475.13;4506277;31;20140;-85
2023/01/24 11:19:42;;;;;;;12.68;5.43;;;;;;;9.05;69.62;99471.50;4503775;31;20088;-86
2023/01/24 11:22:22;;;;;;;14.20;5.72;;;;;;;9.33;67.66;99465.03;4503840;31;20087;-87
2023/01/24 11:24:49;;;;;;;14.90;5.95;;;;;;;9.64;67.79;99457.69;4505609;31;20113;-87
2023/01/24 11:27:18;;;;;;;13.48;5.85;;;;;;;9.37;66.16;99453.84;4504956;31;20092;-87
2023/01/24 11:29:45;;;;;;;14.57;5.35;;;;;;;9.08;65.00;99450.84;4505165;31;20125;-87
2023/01/24 11:32:37;;;;;;;15.63;6.68;;;;;;;8.78;66.86;99449.53;4506489;31;20095;-87
2023/01/24 11:35:11;;;;;;;12.73;5.20;;;;;;;8.61;67.53;99453.19;4505396;31;20355;-86
2023/01/24 11:37:54;;;;;;;13.75;5.43;;;;;;;8.36;68.36;99451.75;4505099;31;20126;-85
2023/01/24 11:40:28;;;;;;;15.60;6.43;;;;;;;8.75;69.34;99442.72;4506080;31;20159;-87
2023/01/24 11:43:10;;;;;;;11.65;4.65;;;;;;;8.83;67.56;99448.62;4504486;31;20084;-86
2023/01/24 11:45:49;;;;;;;13.65;5.97;;;;;;;9.05;65.90;99438.03;4503919;31;20104;-86
2023/01/24 11:48:30;;;;;;;11.43;4.85;;;;;;;9.06;67.50;99429.41;4505531;31;20128;-86
2023/01/24 11:51:19;;;;;;;11.80;4.68;;;;;;;8.73;66.84;99430.75;4505168;31;20132;-86
2023/01/24 11:54:34;;;;;;;11.38;5.07;;;;;;;9.09;67.38;99426.78;4505252;31;20102;-86
2023/01/24 11:57:06;;;;;;;12.18;5.25;;;;;;;9.30;64.51;99425.62;4491422;31;20429;-86
2023/01/24 11:59:54;;;;;;;12.23;4.95;;;;;;;9.28;64.23;99420.50;4504863;31;20147;-86
2023/01/24 12:03:06;;;;;;;11.88;5.25;;;;;;;9.27;63.50;99417.06;4504488;31;20099;-86
2023/01/24 12:05:40;;;;;;;11.55;4.80;;;;;;;9.02;65.87;99420.03;4504774;31;20076;-86
2023/01/24 12:08:45;;;;;;;12.35;5.30;;;;;;;8.88;65.74;99409.94;4505492;31;20122;-86
2023/01/24 12:11:36;;;;;;;11.48;4.85;;;;;;;8.86;66.68;99412.53;4506363;31;20427;-86
2023/01/24 12:14:22;;;;;;;12.10;4.40;;;;;;;8.79;66.67;99416.06;4506034;31;20099;-86
2023/01/24 12:16:56;;;;;;;13.77;5.40;;;;;;;8.13;69.94;99406.56;4502325;31;20080;-86
2023/01/24 12:19:23;;;;;;;10.32;4.20;;;;;;;7.99;70.48;99410.16;4502470;31;20412;-86
2023/01/24 12:21:59;;;;;;;;;;;;;;;8.01;69.03;99399.00;4506079;31;20153;-86
2023/01/24 12:24:33;;;;;;;12.90;5.78;;;;;;;7.62;72.48;99400.22;4506031;31;20024;-86
2023/01/24 12:27:03;;;;;;;13.80;5.70;;;;;;;7.80;72.90;99405.19;4504605;31;20092;-86
2023/01/24 12:29:38;;;;;;;14.32;5.10;;;;;;;8.01;72.92;99404.13;4503207;31;20104;-86
2023/01/24 12:32:30;;;;;;;12.98;5.68;;;;;;;7.50;75.03;99401.19;4502682;31;20868;-86
2023/01/24 12:35:25;;;;;;;14.07;6.37;;;;;;;7.19;75.89;99404.88;4505536;31;20068;-86
2023/01/24 12:38:19;;;;;;;16.90;6.47;;;;;;;7.30;76.18;99400.50;4497511;31;20088;-86
2023/01/24 12:40:50;;;;;;;17.17;7.75;;;;;;;7.22;78.87;99403.12;4503686;31;20104;-85
2023/01/24 12:43:22;;;;;;;19.10;7.72;;;;;;;7.39;79.43;99402.16;4502278;31;20119;-85
2023/01/24 12:46:04;;;;;;;17.23;7.50;;;;;;;7.13;80.17;99400.66;4500999;31;20106;-85
2023/01/24 12:48:40;;;;;;;16.77;7.25;;;;;;;7.48;79.29;99405.50;4502969;31;20129;-86
2023/01/24 12:51:21;;;;;;;15.80;6.53;;;;;;;7.02;81.75;99401.56;4501841;31;20060;-85
2023/01/24 12:54:03;;;;;;;13.65;5.53;;;;;;;7.30;80.84;99410.78;4503663;31;20559;-86
2023/01/24 12:56:49;;;;;;;16.42;7.40;;;;;;;7.06;80.61;99409.25;4504912;31;20103;-86
2023/01/24 12:59:23;;;;;;;18.00;7.68;;;;;;;6.63;84.70;99417.22;4504082;31;20137;-85
2023/01/24 13:02:18;;;;;;;19.73;8.32;;;;;;;6.93;82.40;99415.34;4502914;31;20104;-86
2023/01/24 13:05:03;;;;;;;15.95;6.47;;;;;;;6.86;83.11;99411.94;4505069;31;20143;-85
2023/01/24 13:08:08;;;;;;;15.30;7.32;;;;;;;6.50;84.33;99413.00;4504319;31;20129;-86
2023/01/24 13:11:02;;;;;;;18.85;9.02;;;;;;;6.45;85.33;99422.41;4503690;31;20148;-85